sensor_id;sensor_type;location;lat;lon;timestamp;temperature;humidity
6462;DHT22;3264;42.862;25.098;2022-07-29T00:00:49;17.20;99.90
6462;DHT22;3264;42.862;25.098;2022-07-29T00:03:18;17.20;99.90
6462;DHT22;3264;42.862;25.098;2022-07-29T00:05:52;17.10;99.90
6462;DHT22;3264;42.862;25.098;2022-07-29T00:08:29;17.10;99.90
6462;DHT22;3264;42.862;25.098;2022-07-29T00:10:59;17.10;99.90
6462;DHT22;3264;42.862;25.098;2022-07-29T00:13:28;17.00;99.90
6462;DHT22;3264;42.862;25.098;2022-07-29T00:15:59;17.00;99.90
6462;DHT22;3264;42.862;25.098;2022-07-29T00:18:27;17.10;99.90
6462;DHT22;3264;42.862;25.098;2022-07-29T00:20:58;17.00;99.90
6462;DHT22;3264;42.862;25.098;2022-07-29T00:23:29;17.00;99.90
6462;DHT22;3264;42.862;25.098;2022-07-29T00:26:02;17.00;99.90
6462;DHT22;3264;42.862;25.098;2022-07-29T00:28:36;17.00;99.90
6462;DHT22;3264;42.862;25.098;2022-07-29T00:31:07;16.90;99.90
6462;DHT22;3264;42.862;25.098;2022-07-29T00:33:35;17.00;99.90
6462;DHT22;3264;42.862;25.098;2022-07-29T00:39:10;17.00;99.90
6462;DHT22;3264;42.862;25.098;2022-07-29T00:41:39;17.00;99.90
6462;DHT22;3264;42.862;25.098;2022-07-29T00:44:07;17.00;99.90
6462;DHT22;3264;42.862;25.098;2022-07-29T00:46:36;16.90;99.90
6462;DHT22;3264;42.862;25.098;2022-07-29T00:49:05;16.90;99.90
6462;DHT22;3264;42.862;25.098;2022-07-29T00:51:35;16.80;99.90
6462;DHT22;3264;42.862;25.098;2022-07-29T00:54:05;16.70;99.90
6462;DHT22;3264;42.862;25.098;2022-07-29T00:56:33;16.70;99.90
6462;DHT22;3264;42.862;25.098;2022-07-29T00:59:02;16.70;99.90
6462;DHT22;3264;42.862;25.098;2022-07-29T01:01:31;16.70;99.90
6462;DHT22;3264;42.862;25.098;2022-07-29T01:04:00;16.70;99.90
6462;DHT22;3264;42.862;25.098;2022-07-29T01:06:28;16.80;99.90
6462;DHT22;3264;42.862;25.098;2022-07-29T01:08:56;16.90;99.90
6462;DHT22;3264;42.862;25.098;2022-07-29T01:11:26;16.90;99.90
6462;DHT22;3264;42.862;25.098;2022-07-29T01:13:54;16.90;99.90
6462;DHT22;3264;42.862;25.098;2022-07-29T01:16:30;17.00;99.90
6462;DHT22;3264;42.862;25.098;2022-07-29T01:21:52;17.00;99.90
6462;DHT22;3264;42.862;25.098;2022-07-29T01:24:37;16.90;99.90
6462;DHT22;3264;42.862;25.098;2022-07-29T01:27:20;16.90;99.90
6462;DHT22;3264;42.862;25.098;2022-07-29T01:29:57;16.80;99.90
6462;DHT22;3264;42.862;25.098;2022-07-29T01:32:44;16.80;99.90
6462;DHT22;3264;42.862;25.098;2022-07-29T01:42:05;16.80;99.90
6462;DHT22;3264;42.862;25.098;2022-07-29T01:48:00;16.70;99.90
6462;DHT22;3264;42.862;25.098;2022-07-29T01:50:34;16.70;99.90
6462;DHT22;3264;42.862;25.098;2022-07-29T01:53:06;16.60;99.90
6462;DHT22;3264;42.862;25.098;2022-07-29T01:55:38;16.50;99.90
6462;DHT22;3264;42.862;25.098;2022-07-29T01:58:07;16.60;99.90
6462;DHT22;3264;42.862;25.098;2022-07-29T02:00:36;16.50;99.90
6462;DHT22;3264;42.862;25.098;2022-07-29T02:03:09;16.70;99.90
6462;DHT22;3264;42.862;25.098;2022-07-29T02:09:11;16.60;99.90
6462;DHT22;3264;42.862;25.098;2022-07-29T02:11:43;16.60;99.90
6462;DHT22;3264;42.862;25.098;2022-07-29T02:14:16;16.70;99.90
6462;DHT22;3264;42.862;25.098;2022-07-29T02:16:50;16.70;99.90
6462;DHT22;3264;42.862;25.098;2022-07-29T02:19:40;16.70;99.90
6462;DHT22;3264;42.862;25.098;2022-07-29T02:26:08;16.70;99.90
6462;DHT22;3264;42.862;25.098;2022-07-29T02:28:39;16.70;99.90
6462;DHT22;3264;42.862;25.098;2022-07-29T02:31:44;16.60;99.90
6462;DHT22;3264;42.862;25.098;2022-07-29T02:34:15;16.70;99.90
6462;DHT22;3264;42.862;25.098;2022-07-29T02:36:47;16.50;99.90
6462;DHT22;3264;42.862;25.098;2022-07-29T02:39:15;16.50;99.90
6462;DHT22;3264;42.862;25.098;2022-07-29T02:41:46;16.50;99.90
6462;DHT22;3264;42.862;25.098;2022-07-29T02:44:45;16.40;99.90
6462;DHT22;3264;42.862;25.098;2022-07-29T02:47:17;16.40;99.90
6462;DHT22;3264;42.862;25.098;2022-07-29T02:49:53;16.30;99.90
6462;DHT22;3264;42.862;25.098;2022-07-29T02:52:26;16.30;99.90
6462;DHT22;3264;42.862;25.098;2022-07-29T02:54:58;16.30;99.90
6462;DHT22;3264;42.862;25.098;2022-07-29T02:57:32;16.40;99.90
6462;DHT22;3264;42.862;25.098;2022-07-29T03:00:04;16.30;99.90
6462;DHT22;3264;42.862;25.098;2022-07-29T03:02:35;16.30;99.90
6462;DHT22;3264;42.862;25.098;2022-07-29T03:11:38;16.30;99.90
6462;DHT22;3264;42.862;25.098;2022-07-29T03:20:40;16.30;99.90
6462;DHT22;3264;42.862;25.098;2022-07-29T03:33:17;16.50;99.90
6462;DHT22;3264;42.862;25.098;2022-07-29T03:35:44;16.50;99.90
6462;DHT22;3264;42.862;25.098;2022-07-29T03:38:12;16.50;99.90
6462;DHT22;3264;42.862;25.098;2022-07-29T03:40:44;16.60;99.90
6462;DHT22;3264;42.862;25.098;2022-07-29T03:43:16;16.70;99.90
6462;DHT22;3264;42.862;25.098;2022-07-29T03:45:47;16.60;99.90
6462;DHT22;3264;42.862;25.098;2022-07-29T03:51:28;16.80;99.90
6462;DHT22;3264;42.862;25.098;2022-07-29T03:53:56;16.90;99.90
6462;DHT22;3264;42.862;25.098;2022-07-29T03:56:45;17.00;99.90
6462;DHT22;3264;42.862;25.098;2022-07-29T04:03:09;17.00;99.90
6462;DHT22;3264;42.862;25.098;2022-07-29T04:05:38;16.90;99.90
6462;DHT22;3264;42.862;25.098;2022-07-29T04:08:07;17.00;99.90
6462;DHT22;3264;42.862;25.098;2022-07-29T04:10:35;17.10;99.90
6462;DHT22;3264;42.862;25.098;2022-07-29T04:13:04;17.20;99.90
6462;DHT22;3264;42.862;25.098;2022-07-29T04:15:33;17.30;99.90
6462;DHT22;3264;42.862;25.098;2022-07-29T04:18:01;17.30;99.90
6462;DHT22;3264;42.862;25.098;2022-07-29T04:20:29;17.40;99.90
6462;DHT22;3264;42.862;25.098;2022-07-29T04:23:00;17.50;99.90
6462;DHT22;3264;42.862;25.098;2022-07-29T04:25:28;17.50;99.90
6462;DHT22;3264;42.862;25.098;2022-07-29T04:27:57;17.60;99.90
6462;DHT22;3264;42.862;25.098;2022-07-29T04:40:38;17.70;99.90
6462;DHT22;3264;42.862;25.098;2022-07-29T04:43:06;17.80;99.90
6462;DHT22;3264;42.862;25.098;2022-07-29T04:45:34;17.90;99.90
6462;DHT22;3264;42.862;25.098;2022-07-29T04:48:06;18.00;99.90
6462;DHT22;3264;42.862;25.098;2022-07-29T04:50:34;18.00;99.90
6462;DHT22;3264;42.862;25.098;2022-07-29T04:53:06;18.00;99.90
6462;DHT22;3264;42.862;25.098;2022-07-29T04:55:34;18.10;99.90
6462;DHT22;3264;42.862;25.098;2022-07-29T04:58:04;18.20;99.90
6462;DHT22;3264;42.862;25.098;2022-07-29T05:00:33;18.30;99.90
6462;DHT22;3264;42.862;25.098;2022-07-29T05:03:05;18.40;99.90
6462;DHT22;3264;42.862;25.098;2022-07-29T05:05:36;18.50;99.90
6462;DHT22;3264;42.862;25.098;2022-07-29T05:08:04;18.60;99.90
6462;DHT22;3264;42.862;25.098;2022-07-29T05:10:36;18.80;99.90
6462;DHT22;3264;42.862;25.098;2022-07-29T05:13:06;18.90;99.90
6462;DHT22;3264;42.862;25.098;2022-07-29T05:39:13;20.00;99.90
6462;DHT22;3264;42.862;25.098;2022-07-29T05:41:42;20.50;99.90
6462;DHT22;3264;42.862;25.098;2022-07-29T05:44:11;20.70;99.90
6462;DHT22;3264;42.862;25.098;2022-07-29T05:46:41;20.90;99.90
6462;DHT22;3264;42.862;25.098;2022-07-29T05:49:09;21.20;99.90
6462;DHT22;3264;42.862;25.098;2022-07-29T05:55:13;21.00;99.90
6462;DHT22;3264;42.862;25.098;2022-07-29T05:57:55;21.50;99.90
6462;DHT22;3264;42.862;25.098;2022-07-29T06:00:27;21.70;99.90
6462;DHT22;3264;42.862;25.098;2022-07-29T06:02:56;21.90;99.90
6462;DHT22;3264;42.862;25.098;2022-07-29T06:05:24;22.00;99.90
6462;DHT22;3264;42.862;25.098;2022-07-29T06:07:53;22.10;99.90
6462;DHT22;3264;42.862;25.098;2022-07-29T06:10:23;22.00;99.90
6462;DHT22;3264;42.862;25.098;2022-07-29T06:12:52;22.20;99.90
6462;DHT22;3264;42.862;25.098;2022-07-29T06:18:43;22.80;99.90
6462;DHT22;3264;42.862;25.098;2022-07-29T06:21:44;23.20;99.90
6462;DHT22;3264;42.862;25.098;2022-07-29T06:27:37;23.90;99.90
6462;DHT22;3264;42.862;25.098;2022-07-29T06:30:06;23.80;99.90
6462;DHT22;3264;42.862;25.098;2022-07-29T06:32:36;23.80;99.90
6462;DHT22;3264;42.862;25.098;2022-07-29T06:35:04;24.00;99.90
6462;DHT22;3264;42.862;25.098;2022-07-29T06:37:44;24.40;99.90
6462;DHT22;3264;42.862;25.098;2022-07-29T06:40:12;24.50;99.90
6462;DHT22;3264;42.862;25.098;2022-07-29T06:42:59;25.00;99.90
6462;DHT22;3264;42.862;25.098;2022-07-29T06:45:33;25.30;98.90
6462;DHT22;3264;42.862;25.098;2022-07-29T06:48:02;25.30;99.90
6462;DHT22;3264;42.862;25.098;2022-07-29T06:50:31;25.70;98.70
6462;DHT22;3264;42.862;25.098;2022-07-29T06:52:58;25.70;99.90
6462;DHT22;3264;42.862;25.098;2022-07-29T06:55:26;26.10;99.90
6462;DHT22;3264;42.862;25.098;2022-07-29T06:57:54;26.10;99.90
6462;DHT22;3264;42.862;25.098;2022-07-29T07:00:23;26.20;97.90
6462;DHT22;3264;42.862;25.098;2022-07-29T07:02:52;26.10;97.50
6462;DHT22;3264;42.862;25.098;2022-07-29T07:18:36;27.40;97.40
6462;DHT22;3264;42.862;25.098;2022-07-29T07:21:04;27.60;97.20
6462;DHT22;3264;42.862;25.098;2022-07-29T07:23:47;27.80;93.60
6462;DHT22;3264;42.862;25.098;2022-07-29T07:29:38;27.70;93.90
6462;DHT22;3264;42.862;25.098;2022-07-29T07:32:16;28.00;93.00
6462;DHT22;3264;42.862;25.098;2022-07-29T07:34:47;28.00;93.00
6462;DHT22;3264;42.862;25.098;2022-07-29T07:37:16;28.00;93.20
6462;DHT22;3264;42.862;25.098;2022-07-29T07:39:52;28.50;93.20
6462;DHT22;3264;42.862;25.098;2022-07-29T07:42:20;28.50;92.30
6462;DHT22;3264;42.862;25.098;2022-07-29T07:44:53;28.60;92.50
6462;DHT22;3264;42.862;25.098;2022-07-29T07:47:23;28.80;93.00
6462;DHT22;3264;42.862;25.098;2022-07-29T07:49:56;28.80;93.10
6462;DHT22;3264;42.862;25.098;2022-07-29T07:52:24;28.80;91.20
6462;DHT22;3264;42.862;25.098;2022-07-29T07:54:52;28.80;92.40
6462;DHT22;3264;42.862;25.098;2022-07-29T07:57:20;29.00;91.70
6462;DHT22;3264;42.862;25.098;2022-07-29T07:59:48;28.90;92.00
6462;DHT22;3264;42.862;25.098;2022-07-29T08:02:19;29.00;90.20
6462;DHT22;3264;42.862;25.098;2022-07-29T08:04:48;29.50;92.10
6462;DHT22;3264;42.862;25.098;2022-07-29T08:07:25;29.90;90.40
6462;DHT22;3264;42.862;25.098;2022-07-29T08:09:55;30.20;90.50
6462;DHT22;3264;42.862;25.098;2022-07-29T08:12:24;29.90;84.40
6462;DHT22;3264;42.862;25.098;2022-07-29T08:14:53;29.30;86.10
6462;DHT22;3264;42.862;25.098;2022-07-29T08:17:22;29.40;88.80
6462;DHT22;3264;42.862;25.098;2022-07-29T08:19:50;29.40;86.90
6462;DHT22;3264;42.862;25.098;2022-07-29T08:22:35;29.60;87.00
6462;DHT22;3264;42.862;25.098;2022-07-29T08:25:04;29.30;80.70
6462;DHT22;3264;42.862;25.098;2022-07-29T08:27:33;29.90;84.20
6462;DHT22;3264;42.862;25.098;2022-07-29T08:30:01;30.00;81.70
6462;DHT22;3264;42.862;25.098;2022-07-29T08:32:29;29.70;82.70
6462;DHT22;3264;42.862;25.098;2022-07-29T08:38:13;29.90;81.60
6462;DHT22;3264;42.862;25.098;2022-07-29T08:40:41;30.00;75.40
6462;DHT22;3264;42.862;25.098;2022-07-29T08:47:08;30.40;77.90
6462;DHT22;3264;42.862;25.098;2022-07-29T08:49:35;31.00;75.20
6462;DHT22;3264;42.862;25.098;2022-07-29T08:52:05;31.10;75.00
6462;DHT22;3264;42.862;25.098;2022-07-29T08:54:48;30.60;69.40
6462;DHT22;3264;42.862;25.098;2022-07-29T08:57:39;31.10;75.10
6462;DHT22;3264;42.862;25.098;2022-07-29T09:00:17;31.00;69.60
6462;DHT22;3264;42.862;25.098;2022-07-29T09:06:08;31.70;67.20
6462;DHT22;3264;42.862;25.098;2022-07-29T09:08:36;31.70;66.00
6462;DHT22;3264;42.862;25.098;2022-07-29T09:11:07;31.90;68.80
6462;DHT22;3264;42.862;25.098;2022-07-29T09:13:36;31.70;63.00
6462;DHT22;3264;42.862;25.098;2022-07-29T09:16:04;31.50;64.00
6462;DHT22;3264;42.862;25.098;2022-07-29T09:18:36;31.60;66.90
6462;DHT22;3264;42.862;25.098;2022-07-29T09:21:08;31.80;63.50
6462;DHT22;3264;42.862;25.098;2022-07-29T09:24:05;31.80;60.70
6462;DHT22;3264;42.862;25.098;2022-07-29T09:26:42;32.00;62.70
6462;DHT22;3264;42.862;25.098;2022-07-29T09:29:45;32.40;61.00
6462;DHT22;3264;42.862;25.098;2022-07-29T09:32:13;32.80;61.40
6462;DHT22;3264;42.862;25.098;2022-07-29T09:34:41;32.80;58.00
6462;DHT22;3264;42.862;25.098;2022-07-29T09:37:09;32.20;57.70
6462;DHT22;3264;42.862;25.098;2022-07-29T09:39:40;32.40;58.20
6462;DHT22;3264;42.862;25.098;2022-07-29T09:42:28;32.40;59.70
6462;DHT22;3264;42.862;25.098;2022-07-29T09:45:30;32.50;56.00
6462;DHT22;3264;42.862;25.098;2022-07-29T09:48:16;32.60;58.20
6462;DHT22;3264;42.862;25.098;2022-07-29T09:51:01;32.90;55.60
6462;DHT22;3264;42.862;25.098;2022-07-29T09:53:42;32.60;56.50
6462;DHT22;3264;42.862;25.098;2022-07-29T09:56:39;32.70;54.20
6462;DHT22;3264;42.862;25.098;2022-07-29T09:59:09;33.00;57.90
6462;DHT22;3264;42.862;25.098;2022-07-29T10:01:38;33.00;54.70
6462;DHT22;3264;42.862;25.098;2022-07-29T10:04:07;33.40;51.90
6462;DHT22;3264;42.862;25.098;2022-07-29T10:06:37;33.70;52.30
6462;DHT22;3264;42.862;25.098;2022-07-29T10:09:28;33.30;49.00
6462;DHT22;3264;42.862;25.098;2022-07-29T10:12:08;32.40;50.20
6462;DHT22;3264;42.862;25.098;2022-07-29T10:14:38;33.00;50.80
6462;DHT22;3264;42.862;25.098;2022-07-29T10:17:12;33.80;51.50
6462;DHT22;3264;42.862;25.098;2022-07-29T10:19:48;33.00;44.90
6462;DHT22;3264;42.862;25.098;2022-07-29T10:22:30;33.20;49.50
6462;DHT22;3264;42.862;25.098;2022-07-29T10:24:58;33.30;45.70
6462;DHT22;3264;42.862;25.098;2022-07-29T10:27:45;32.90;44.70
6462;DHT22;3264;42.862;25.098;2022-07-29T10:30:15;33.10;45.10
6462;DHT22;3264;42.862;25.098;2022-07-29T10:33:09;33.60;46.00
6462;DHT22;3264;42.862;25.098;2022-07-29T10:35:47;33.90;46.60
6462;DHT22;3264;42.862;25.098;2022-07-29T10:38:35;33.70;45.20
6462;DHT22;3264;42.862;25.098;2022-07-29T10:41:18;33.80;45.10
6462;DHT22;3264;42.862;25.098;2022-07-29T10:44:00;33.70;43.50
6462;DHT22;3264;42.862;25.098;2022-07-29T10:50:00;33.10;43.80
6462;DHT22;3264;42.862;25.098;2022-07-29T10:52:53;33.90;44.90
6462;DHT22;3264;42.862;25.098;2022-07-29T10:55:33;34.10;44.10
6462;DHT22;3264;42.862;25.098;2022-07-29T10:58:16;34.10;43.60
6462;DHT22;3264;42.862;25.098;2022-07-29T11:00:48;33.80;43.20
6462;DHT22;3264;42.862;25.098;2022-07-29T11:07:20;34.40;44.80
6462;DHT22;3264;42.862;25.098;2022-07-29T11:10:24;34.10;42.60
6462;DHT22;3264;42.862;25.098;2022-07-29T11:12:56;33.50;42.20
6462;DHT22;3264;42.862;25.098;2022-07-29T11:15:24;33.60;42.40
6462;DHT22;3264;42.862;25.098;2022-07-29T11:18:08;34.00;44.20
6462;DHT22;3264;42.862;25.098;2022-07-29T11:20:41;34.30;43.10
6462;DHT22;3264;42.862;25.098;2022-07-29T11:26:35;34.10;42.70
6462;DHT22;3264;42.862;25.098;2022-07-29T11:29:13;33.80;44.40
6462;DHT22;3264;42.862;25.098;2022-07-29T11:31:48;34.20;44.00
6462;DHT22;3264;42.862;25.098;2022-07-29T11:34:22;34.00;42.50
6462;DHT22;3264;42.862;25.098;2022-07-29T11:40:20;34.10;42.80
6462;DHT22;3264;42.862;25.098;2022-07-29T11:49:19;34.70;43.20
6462;DHT22;3264;42.862;25.098;2022-07-29T11:55:14;34.60;41.10
6462;DHT22;3264;42.862;25.098;2022-07-29T11:58:03;34.30;43.10
6462;DHT22;3264;42.862;25.098;2022-07-29T12:00:35;34.50;41.90
6462;DHT22;3264;42.862;25.098;2022-07-29T12:03:06;34.40;41.30
6462;DHT22;3264;42.862;25.098;2022-07-29T12:05:39;34.50;43.20
6462;DHT22;3264;42.862;25.098;2022-07-29T12:08:13;34.30;43.40
6462;DHT22;3264;42.862;25.098;2022-07-29T12:10:43;34.40;42.60
6462;DHT22;3264;42.862;25.098;2022-07-29T12:13:12;34.00;43.40
6462;DHT22;3264;42.862;25.098;2022-07-29T12:15:53;34.00;42.90
6462;DHT22;3264;42.862;25.098;2022-07-29T12:18:29;34.40;43.10
6462;DHT22;3264;42.862;25.098;2022-07-29T12:21:00;34.00;41.80
6462;DHT22;3264;42.862;25.098;2022-07-29T12:23:29;34.00;42.70
6462;DHT22;3264;42.862;25.098;2022-07-29T12:25:59;33.90;43.00
6462;DHT22;3264;42.862;25.098;2022-07-29T12:28:27;33.90;43.20
6462;DHT22;3264;42.862;25.098;2022-07-29T12:30:56;33.90;43.00
6462;DHT22;3264;42.862;25.098;2022-07-29T12:33:27;34.30;43.70
6462;DHT22;3264;42.862;25.098;2022-07-29T12:35:59;34.20;43.30
6462;DHT22;3264;42.862;25.098;2022-07-29T12:38:28;34.00;43.40
6462;DHT22;3264;42.862;25.098;2022-07-29T12:40:56;34.30;44.90
6462;DHT22;3264;42.862;25.098;2022-07-29T12:43:25;34.30;45.70
6462;DHT22;3264;42.862;25.098;2022-07-29T12:45:54;34.00;43.60
6462;DHT22;3264;42.862;25.098;2022-07-29T12:48:34;33.50;43.20
6462;DHT22;3264;42.862;25.098;2022-07-29T12:51:06;33.80;44.10
6462;DHT22;3264;42.862;25.098;2022-07-29T12:53:35;34.40;43.80
6462;DHT22;3264;42.862;25.098;2022-07-29T12:56:05;33.70;43.20
6462;DHT22;3264;42.862;25.098;2022-07-29T12:58:35;33.40;43.90
6462;DHT22;3264;42.862;25.098;2022-07-29T13:01:07;33.60;43.90
6462;DHT22;3264;42.862;25.098;2022-07-29T13:03:51;33.80;43.10
6462;DHT22;3264;42.862;25.098;2022-07-29T13:09:43;33.30;43.70
6462;DHT22;3264;42.862;25.098;2022-07-29T13:12:13;32.50;45.20
6462;DHT22;3264;42.862;25.098;2022-07-29T13:14:46;32.30;45.60
6462;DHT22;3264;42.862;25.098;2022-07-29T13:17:17;31.90;46.20
6462;DHT22;3264;42.862;25.098;2022-07-29T13:19:47;31.90;46.30
6462;DHT22;3264;42.862;25.098;2022-07-29T13:26:14;31.90;47.80
6462;DHT22;3264;42.862;25.098;2022-07-29T13:28:46;31.80;48.10
6462;DHT22;3264;42.862;25.098;2022-07-29T13:31:15;31.80;47.30
6462;DHT22;3264;42.862;25.098;2022-07-29T13:33:46;31.90;48.60
6462;DHT22;3264;42.862;25.098;2022-07-29T13:39:49;31.90;49.00
6462;DHT22;3264;42.862;25.098;2022-07-29T13:42:22;32.10;49.30
6462;DHT22;3264;42.862;25.098;2022-07-29T13:44:51;32.30;49.60
6462;DHT22;3264;42.862;25.098;2022-07-29T13:50:44;32.40;49.80
6462;DHT22;3264;42.862;25.098;2022-07-29T13:53:13;32.40;48.30
6462;DHT22;3264;42.862;25.098;2022-07-29T13:55:42;32.30;46.00
6462;DHT22;3264;42.862;25.098;2022-07-29T13:58:48;32.50;47.20
6462;DHT22;3264;42.862;25.098;2022-07-29T14:01:16;32.90;44.40
6462;DHT22;3264;42.862;25.098;2022-07-29T14:03:53;33.40;43.80
6462;DHT22;3264;42.862;25.098;2022-07-29T14:06:30;33.50;44.70
6462;DHT22;3264;42.862;25.098;2022-07-29T14:09:06;33.60;44.60
6462;DHT22;3264;42.862;25.098;2022-07-29T14:11:37;33.60;45.80
6462;DHT22;3264;42.862;25.098;2022-07-29T14:14:08;33.50;46.00
6462;DHT22;3264;42.862;25.098;2022-07-29T14:16:38;33.00;46.00
6462;DHT22;3264;42.862;25.098;2022-07-29T14:19:07;32.60;45.10
6462;DHT22;3264;42.862;25.098;2022-07-29T14:21:36;32.30;47.20
6462;DHT22;3264;42.862;25.098;2022-07-29T14:24:06;32.20;48.60
6462;DHT22;3264;42.862;25.098;2022-07-29T14:29:58;32.00;51.30
6462;DHT22;3264;42.862;25.098;2022-07-29T14:32:26;31.60;51.30
6462;DHT22;3264;42.862;25.098;2022-07-29T14:34:55;31.50;53.20
6462;DHT22;3264;42.862;25.098;2022-07-29T14:37:24;31.60;53.40
6462;DHT22;3264;42.862;25.098;2022-07-29T14:39:52;32.10;52.10
6462;DHT22;3264;42.862;25.098;2022-07-29T14:42:20;32.70;51.90
6462;DHT22;3264;42.862;25.098;2022-07-29T14:44:49;33.00;49.10
6462;DHT22;3264;42.862;25.098;2022-07-29T14:47:20;33.00;49.10
6462;DHT22;3264;42.862;25.098;2022-07-29T14:49:50;33.00;48.30
6462;DHT22;3264;42.862;25.098;2022-07-29T14:52:18;33.10;48.00
6462;DHT22;3264;42.862;25.098;2022-07-29T14:54:46;33.30;48.10
6462;DHT22;3264;42.862;25.098;2022-07-29T14:57:14;33.10;49.00
6462;DHT22;3264;42.862;25.098;2022-07-29T14:59:43;33.00;49.00
6462;DHT22;3264;42.862;25.098;2022-07-29T15:02:11;33.00;48.90
6462;DHT22;3264;42.862;25.098;2022-07-29T15:04:55;33.10;47.80
6462;DHT22;3264;42.862;25.098;2022-07-29T15:07:27;33.10;49.00
6462;DHT22;3264;42.862;25.098;2022-07-29T15:09:56;32.90;46.80
6462;DHT22;3264;42.862;25.098;2022-07-29T15:12:25;33.00;45.80
6462;DHT22;3264;42.862;25.098;2022-07-29T15:14:54;33.10;46.40
6462;DHT22;3264;42.862;25.098;2022-07-29T15:17:23;33.00;47.50
6462;DHT22;3264;42.862;25.098;2022-07-29T15:19:53;32.80;47.60
6462;DHT22;3264;42.862;25.098;2022-07-29T15:22:21;32.40;49.10
6462;DHT22;3264;42.862;25.098;2022-07-29T15:24:50;32.10;48.40
6462;DHT22;3264;42.862;25.098;2022-07-29T15:27:23;32.20;47.60
6462;DHT22;3264;42.862;25.098;2022-07-29T15:29:52;32.20;49.20
6462;DHT22;3264;42.862;25.098;2022-07-29T15:32:45;32.20;47.40
6462;DHT22;3264;42.862;25.098;2022-07-29T15:35:26;32.30;49.20
6462;DHT22;3264;42.862;25.098;2022-07-29T15:38:02;32.20;50.00
6462;DHT22;3264;42.862;25.098;2022-07-29T15:40:55;32.10;53.70
6462;DHT22;3264;42.862;25.098;2022-07-29T15:43:34;31.90;50.50
6462;DHT22;3264;42.862;25.098;2022-07-29T15:46:02;31.90;49.30
6462;DHT22;3264;42.862;25.098;2022-07-29T15:48:46;31.80;48.90
6462;DHT22;3264;42.862;25.098;2022-07-29T15:51:16;31.80;49.00
6462;DHT22;3264;42.862;25.098;2022-07-29T15:53:44;31.40;49.00
6462;DHT22;3264;42.862;25.098;2022-07-29T15:56:12;31.10;50.50
6462;DHT22;3264;42.862;25.098;2022-07-29T15:58:40;31.00;49.60
6462;DHT22;3264;42.862;25.098;2022-07-29T16:01:17;30.80;50.70
6462;DHT22;3264;42.862;25.098;2022-07-29T16:03:45;30.50;55.80
6462;DHT22;3264;42.862;25.098;2022-07-29T16:06:15;30.50;51.00
6462;DHT22;3264;42.862;25.098;2022-07-29T16:12:06;30.40;50.40
6462;DHT22;3264;42.862;25.098;2022-07-29T16:14:34;30.40;50.80
6462;DHT22;3264;42.862;25.098;2022-07-29T16:20:21;30.60;50.50
6462;DHT22;3264;42.862;25.098;2022-07-29T16:22:51;30.60;51.10
6462;DHT22;3264;42.862;25.098;2022-07-29T16:25:56;30.50;50.50
6462;DHT22;3264;42.862;25.098;2022-07-29T16:38:33;29.60;54.80
6462;DHT22;3264;42.862;25.098;2022-07-29T16:41:03;29.30;57.50
6462;DHT22;3264;42.862;25.098;2022-07-29T16:43:33;29.10;57.70
6462;DHT22;3264;42.862;25.098;2022-07-29T16:46:01;28.90;56.10
6462;DHT22;3264;42.862;25.098;2022-07-29T16:48:47;28.80;58.50
6462;DHT22;3264;42.862;25.098;2022-07-29T16:51:16;28.70;58.00
6462;DHT22;3264;42.862;25.098;2022-07-29T16:53:46;28.30;59.40
6462;DHT22;3264;42.862;25.098;2022-07-29T17:00:07;28.00;61.70
6462;DHT22;3264;42.862;25.098;2022-07-29T17:09:48;27.70;62.90
6462;DHT22;3264;42.862;25.098;2022-07-29T17:12:16;27.20;64.50
6462;DHT22;3264;42.862;25.098;2022-07-29T17:14:45;26.90;64.90
6462;DHT22;3264;42.862;25.098;2022-07-29T17:17:43;26.80;65.40
6462;DHT22;3264;42.862;25.098;2022-07-29T17:20:46;26.70;66.30
6462;DHT22;3264;42.862;25.098;2022-07-29T17:23:14;26.50;66.30
6462;DHT22;3264;42.862;25.098;2022-07-29T17:25:44;26.20;67.10
6462;DHT22;3264;42.862;25.098;2022-07-29T17:28:12;26.10;68.20
6462;DHT22;3264;42.862;25.098;2022-07-29T17:30:46;26.00;69.10
6462;DHT22;3264;42.862;25.098;2022-07-29T17:39:13;25.80;68.80
6462;DHT22;3264;42.862;25.098;2022-07-29T17:41:42;25.50;69.70
6462;DHT22;3264;42.862;25.098;2022-07-29T17:44:12;25.40;70.00
6462;DHT22;3264;42.862;25.098;2022-07-29T17:46:41;25.30;70.60
6462;DHT22;3264;42.862;25.098;2022-07-29T17:49:10;25.20;71.20
6462;DHT22;3264;42.862;25.098;2022-07-29T17:51:40;25.10;71.60
6462;DHT22;3264;42.862;25.098;2022-07-29T17:54:09;25.00;73.10
6462;DHT22;3264;42.862;25.098;2022-07-29T17:56:39;24.90;74.20
6462;DHT22;3264;42.862;25.098;2022-07-29T17:59:07;24.70;73.40
6462;DHT22;3264;42.862;25.098;2022-07-29T18:01:36;24.50;73.90
6462;DHT22;3264;42.862;25.098;2022-07-29T18:04:07;24.50;74.20
6462;DHT22;3264;42.862;25.098;2022-07-29T18:06:37;24.40;75.80
6462;DHT22;3264;42.862;25.098;2022-07-29T18:09:06;24.50;76.20
6462;DHT22;3264;42.862;25.098;2022-07-29T18:11:48;24.40;76.60
6462;DHT22;3264;42.862;25.098;2022-07-29T18:14:18;24.20;78.20
6462;DHT22;3264;42.862;25.098;2022-07-29T18:16:46;24.20;77.00
6462;DHT22;3264;42.862;25.098;2022-07-29T18:19:15;24.20;77.40
6462;DHT22;3264;42.862;25.098;2022-07-29T18:21:44;24.00;78.20
6462;DHT22;3264;42.862;25.098;2022-07-29T18:24:13;23.90;79.40
6462;DHT22;3264;42.862;25.098;2022-07-29T18:26:42;23.90;78.90
6462;DHT22;3264;42.862;25.098;2022-07-29T18:29:12;23.80;79.20
6462;DHT22;3264;42.862;25.098;2022-07-29T18:31:41;23.80;79.90
6462;DHT22;3264;42.862;25.098;2022-07-29T18:34:09;23.50;80.90
6462;DHT22;3264;42.862;25.098;2022-07-29T18:36:38;23.60;83.40
6462;DHT22;3264;42.862;25.098;2022-07-29T18:39:06;23.50;84.50
6462;DHT22;3264;42.862;25.098;2022-07-29T18:41:35;23.30;85.80
6462;DHT22;3264;42.862;25.098;2022-07-29T18:44:04;23.40;84.70
6462;DHT22;3264;42.862;25.098;2022-07-29T18:46:37;23.50;84.00
6462;DHT22;3264;42.862;25.098;2022-07-29T18:49:07;23.30;85.50
6462;DHT22;3264;42.862;25.098;2022-07-29T18:51:35;23.30;85.50
6462;DHT22;3264;42.862;25.098;2022-07-29T18:57:11;22.90;87.90
6462;DHT22;3264;42.862;25.098;2022-07-29T18:59:39;23.00;89.20
6462;DHT22;3264;42.862;25.098;2022-07-29T19:02:10;22.90;89.80
6462;DHT22;3264;42.862;25.098;2022-07-29T19:04:39;22.90;90.30
6462;DHT22;3264;42.862;25.098;2022-07-29T19:07:08;22.90;90.10
6462;DHT22;3264;42.862;25.098;2022-07-29T19:12:59;23.00;90.00
6462;DHT22;3264;42.862;25.098;2022-07-29T19:29:14;22.80;91.40
6462;DHT22;3264;42.862;25.098;2022-07-29T19:31:45;22.90;91.90
6462;DHT22;3264;42.862;25.098;2022-07-29T19:34:14;22.70;91.80
6462;DHT22;3264;42.862;25.098;2022-07-29T19:36:45;22.60;92.00
6462;DHT22;3264;42.862;25.098;2022-07-29T19:39:16;22.80;91.70
6462;DHT22;3264;42.862;25.098;2022-07-29T19:41:48;23.00;91.20
6462;DHT22;3264;42.862;25.098;2022-07-29T19:44:18;23.10;91.00
6462;DHT22;3264;42.862;25.098;2022-07-29T19:46:59;22.90;91.40
6462;DHT22;3264;42.862;25.098;2022-07-29T19:49:28;23.00;90.90
6462;DHT22;3264;42.862;25.098;2022-07-29T19:52:00;23.00;90.30
6462;DHT22;3264;42.862;25.098;2022-07-29T19:57:57;23.50;85.90
6462;DHT22;3264;42.862;25.098;2022-07-29T20:00:32;23.50;87.20
6462;DHT22;3264;42.862;25.098;2022-07-29T20:03:03;23.50;87.40